createdAt,value
2019-02-20T00:00:28.859Z,14.60
2019-02-20T00:02:57.213Z,17.07
2019-02-20T00:05:25.597Z,16.07
2019-02-20T00:07:53.964Z,19.17
2019-02-20T00:10:22.283Z,19.83
2019-02-20T00:12:50.594Z,15.90
2019-02-20T00:15:18.918Z,16.20
2019-02-20T00:17:47.223Z,20.70
2019-02-20T00:20:15.691Z,13.10
2019-02-20T00:22:43.970Z,11.90
2019-02-20T00:25:12.300Z,14.40
2019-02-20T00:27:40.675Z,13.70
2019-02-20T00:30:10.728Z,14.23
2019-02-20T00:32:39.094Z,11.20
2019-02-20T00:35:07.527Z,13.80
2019-02-20T00:37:35.890Z,13.70
2019-02-20T00:40:07.372Z,12.50
2019-02-20T00:42:35.755Z,10.17
2019-02-20T00:45:07.039Z,12.33
2019-02-20T00:47:49.202Z,16.03
2019-02-20T00:50:18.329Z,14.73
2019-02-20T00:52:50.139Z,12.17
2019-02-20T00:55:18.488Z,12.27
2019-02-20T00:57:46.812Z,14.53
2019-02-20T01:00:16.361Z,14.40
2019-02-20T01:02:44.873Z,9.93
2019-02-20T01:05:13.209Z,14.10
2019-02-20T01:07:41.683Z,14.60
2019-02-20T01:10:10.125Z,16.07
2019-02-20T01:12:38.489Z,14.80
2019-02-20T01:15:09.533Z,13.93
2019-02-20T01:17:37.849Z,11.93
2019-02-20T01:20:08.938Z,13.93
2019-02-20T01:22:37.333Z,11.87
2019-02-20T01:25:06.530Z,14.40
2019-02-20T01:27:35.009Z,10.90
2019-02-20T01:30:04.349Z,14.83
2019-02-20T01:32:32.731Z,12.90
2019-02-20T01:35:01.094Z,14.53
2019-02-20T01:37:29.474Z,13.07
2019-02-20T01:39:57.761Z,13.90
2019-02-20T01:42:26.167Z,10.20
2019-02-20T01:44:54.483Z,10.60
2019-02-20T01:47:22.758Z,13.37
2019-02-20T01:49:52.197Z,12.90
2019-02-20T01:52:20.500Z,13.47
2019-02-20T01:54:48.820Z,12.67
2019-02-20T01:57:17.124Z,14.67
2019-02-20T01:59:45.487Z,12.57
2019-02-20T02:02:14.203Z,15.73
2019-02-20T02:04:42.519Z,13.43
2019-02-20T02:07:10.851Z,17.03
2019-02-20T02:09:39.181Z,13.23
2019-02-20T02:12:07.624Z,13.57
2019-02-20T02:14:35.950Z,15.83
2019-02-20T02:17:04.481Z,13.73
2019-02-20T02:19:32.947Z,14.83
2019-02-20T02:22:02.909Z,17.60
2019-02-20T02:24:31.248Z,20.10
2019-02-20T02:26:59.625Z,15.03
2019-02-20T02:29:27.996Z,21.20
2019-02-20T02:31:56.368Z,17.60
2019-02-20T02:34:24.714Z,18.73
2019-02-20T02:36:53.006Z,13.40
2019-02-20T02:39:21.481Z,14.47
2019-02-20T02:41:49.843Z,15.97
2019-02-20T02:44:18.183Z,15.77
2019-02-20T02:46:46.725Z,14.33
2019-02-20T02:49:15.049Z,14.77
2019-02-20T02:51:43.466Z,16.50
2019-02-20T02:54:11.735Z,19.57
2019-02-20T02:56:40.147Z,17.80
2019-02-20T02:59:08.453Z,14.47
2019-02-20T03:01:37.070Z,15.80
2019-02-20T03:04:05.432Z,16.17
2019-02-20T03:06:33.760Z,14.83
2019-02-20T03:09:02.043Z,16.70
2019-02-20T03:11:30.369Z,13.53
2019-02-20T03:13:58.717Z,17.17
2019-02-20T03:16:27.065Z,18.17
2019-02-20T03:18:55.401Z,15.37
2019-02-20T03:21:23.733Z,14.53
2019-02-20T03:23:52.090Z,16.10
2019-02-20T03:26:21.313Z,15.87
2019-02-20T03:28:49.596Z,12.53
2019-02-20T03:31:17.930Z,14.70
2019-02-20T03:33:46.367Z,15.67
2019-02-20T03:36:14.699Z,16.47
2019-02-20T03:38:42.987Z,16.00
2019-02-20T03:41:11.292Z,14.87
2019-02-20T03:43:39.599Z,16.30
2019-02-20T03:46:07.926Z,18.47
2019-02-20T03:48:36.759Z,20.80
2019-02-20T03:51:05.187Z,17.67
2019-02-20T03:53:33.762Z,18.60
2019-02-20T03:56:02.098Z,16.00
2019-02-20T03:58:30.382Z,16.93
2019-02-20T04:00:58.668Z,14.47
2019-02-20T04:03:27.055Z,18.80
2019-02-20T04:05:55.452Z,15.37
2019-02-20T04:08:23.803Z,19.63
2019-02-20T04:10:52.121Z,14.90
2019-02-20T04:13:20.475Z,18.77
2019-02-20T04:15:48.754Z,18.03
2019-02-20T04:18:17.072Z,18.50
2019-02-20T04:20:45.359Z,17.67
2019-02-20T04:23:13.676Z,17.30
2019-02-20T04:25:41.982Z,18.73
2019-02-20T04:28:10.465Z,16.90
2019-02-20T04:30:38.755Z,19.27
2019-02-20T04:33:07.075Z,17.60
2019-02-20T04:35:35.378Z,19.13
2019-02-20T04:38:03.703Z,21.43
2019-02-20T04:40:31.998Z,18.80
2019-02-20T04:43:00.324Z,20.80
2019-02-20T04:45:28.604Z,16.77
2019-02-20T04:47:56.948Z,20.43
2019-02-20T04:50:25.247Z,20.80
2019-02-20T04:52:53.568Z,21.40
2019-02-20T04:55:21.931Z,23.97
2019-02-20T04:57:53.408Z,22.67
2019-02-20T05:00:21.940Z,18.97
2019-02-20T05:02:50.250Z,17.73
2019-02-20T05:05:18.761Z,17.13
2019-02-20T05:07:47.124Z,18.13
2019-02-20T05:10:15.420Z,16.83
2019-02-20T05:12:43.718Z,24.90
2019-02-20T05:15:12.031Z,21.93
2019-02-20T05:17:40.329Z,19.40
2019-02-20T05:20:09.395Z,22.47
2019-02-20T05:22:37.883Z,24.27
2019-02-20T05:25:06.420Z,36.80
2019-02-20T05:27:34.724Z,36.67
2019-02-20T05:30:03.165Z,31.90
2019-02-20T05:32:31.534Z,29.10
2019-02-20T05:35:00.528Z,33.53
2019-02-20T05:37:28.982Z,27.90
2019-02-20T05:39:57.315Z,31.80
2019-02-20T05:42:25.754Z,30.60
2019-02-20T05:44:54.108Z,31.30
2019-02-20T05:47:22.394Z,31.23
2019-02-20T05:49:51.046Z,32.30
2019-02-20T05:52:19.338Z,28.37
2019-02-20T05:54:47.736Z,22.43
2019-02-20T05:57:16.036Z,20.27
2019-02-20T05:59:44.411Z,23.80
2019-02-20T06:02:12.724Z,28.43
2019-02-20T06:04:41.145Z,21.53
2019-02-20T06:07:09.665Z,24.27
2019-02-20T06:09:37.993Z,22.30
2019-02-20T06:12:06.288Z,22.73
2019-02-20T06:14:35.613Z,25.27
2019-02-20T06:17:03.987Z,15.33
2019-02-20T06:19:32.297Z,20.27
2019-02-20T06:22:00.625Z,21.77
2019-02-20T06:24:28.950Z,15.90
2019-02-20T06:26:57.269Z,19.07
2019-02-20T06:29:25.628Z,18.10
2019-02-20T06:31:53.962Z,22.63
2019-02-20T06:34:22.258Z,21.17
2019-02-20T06:36:50.584Z,17.27
2019-02-20T06:39:18.879Z,21.03
2019-02-20T06:41:47.195Z,28.30
2019-02-20T06:44:15.531Z,26.73
2019-02-20T06:46:43.929Z,23.70
2019-02-20T06:49:12.231Z,25.30
2019-02-20T06:51:40.579Z,19.03
2019-02-20T06:54:08.890Z,19.67
2019-02-20T06:56:37.232Z,21.07
2019-02-20T06:59:05.533Z,19.30
2019-02-20T07:01:33.859Z,20.23
2019-02-20T07:04:02.273Z,21.90
2019-02-20T07:06:39.375Z,19.87
2019-02-20T07:09:36.048Z,22.70
2019-02-20T07:12:07.538Z,22.00
2019-02-20T07:14:58.422Z,22.60
2019-02-20T07:17:47.952Z,25.73
2019-02-20T07:20:25.513Z,24.43
2019-02-20T07:22:56.997Z,23.43
2019-02-20T07:25:28.619Z,24.70
2019-02-20T07:28:00.194Z,25.00
2019-02-20T07:30:28.736Z,24.37
2019-02-20T07:32:57.084Z,22.60
2019-02-20T07:35:25.377Z,30.20
2019-02-20T07:37:55.452Z,24.00
2019-02-20T07:40:23.801Z,29.67
2019-02-20T07:42:52.141Z,26.97
2019-02-20T07:45:20.563Z,24.30
2019-02-20T07:47:51.393Z,30.27
2019-02-20T07:50:19.821Z,24.10
2019-02-20T07:52:49.160Z,23.20
2019-02-20T07:55:17.726Z,27.80
2019-02-20T07:57:46.079Z,26.00
2019-02-20T08:00:15.214Z,22.67
2019-02-20T08:02:43.637Z,31.20
2019-02-20T08:05:12.071Z,25.23
2019-02-20T08:07:40.518Z,25.20
2019-02-20T08:10:11.060Z,24.80
2019-02-20T08:12:39.469Z,26.73
2019-02-20T08:15:10.253Z,23.80
2019-02-20T08:17:38.728Z,30.93
2019-02-20T08:20:09.103Z,22.73
2019-02-20T08:22:37.453Z,25.50
2019-02-20T08:25:07.293Z,22.70
2019-02-20T08:27:35.741Z,23.97
2019-02-20T08:30:06.447Z,25.30
2019-02-20T08:32:34.898Z,25.13
2019-02-20T08:35:03.380Z,24.00
2019-02-20T08:37:31.696Z,24.80
2019-02-20T08:40:00.033Z,27.10
2019-02-20T08:42:28.434Z,29.20
2019-02-20T08:44:56.774Z,25.90
2019-02-20T08:47:25.284Z,26.37
2019-02-20T08:49:54.457Z,28.47
2019-02-20T08:52:23.090Z,37.03
2019-02-20T08:54:52.019Z,29.83
2019-02-20T08:57:20.527Z,29.10
2019-02-20T08:59:49.350Z,30.80
2019-02-20T09:02:17.729Z,28.43
2019-02-20T09:04:46.036Z,25.47
2019-02-20T09:07:14.716Z,28.20
2019-02-20T09:09:43.020Z,29.93
2019-02-20T09:12:11.641Z,26.37
2019-02-20T09:14:40.241Z,28.90
2019-02-20T09:17:08.560Z,31.40
2019-02-20T09:19:36.869Z,29.30
2019-02-20T09:22:05.297Z,26.60
2019-02-20T09:24:33.676Z,28.93
2019-02-20T09:30:28.314Z,26.70
2019-02-20T09:32:51.573Z,32.20
2019-02-20T09:35:20.632Z,28.30
2019-02-20T09:37:49.003Z,29.00
2019-02-20T09:40:18.572Z,29.20
2019-02-20T09:42:51.684Z,29.00
2019-02-20T09:45:20.097Z,26.33
2019-02-20T09:47:48.428Z,32.83
2019-02-20T09:50:16.827Z,26.63
2019-02-20T09:52:52.012Z,31.80
2019-02-20T09:55:15.279Z,24.63
2019-02-20T09:57:43.718Z,26.23
2019-02-20T10:00:20.277Z,31.97
2019-02-20T10:02:50.088Z,34.97
2019-02-20T10:05:18.404Z,26.03
2019-02-20T10:07:46.746Z,30.13
2019-02-20T10:10:15.110Z,30.77
2019-02-20T10:12:43.529Z,31.97
2019-02-20T10:15:17.323Z,25.23
2019-02-20T10:17:45.769Z,32.53
2019-02-20T10:20:14.468Z,28.20
2019-02-20T10:22:42.770Z,30.37
2019-02-20T10:25:13.121Z,29.30
2019-02-20T10:27:41.648Z,28.43
2019-02-20T10:30:13.380Z,27.37
2019-02-20T10:32:41.692Z,25.80
2019-02-20T10:35:10.741Z,30.33
2019-02-20T10:37:39.140Z,26.63
2019-02-20T10:40:11.522Z,30.93
2019-02-20T10:42:39.910Z,26.93
2019-02-20T10:45:10.991Z,36.40
2019-02-20T10:47:39.313Z,28.80
2019-02-20T10:50:11.955Z,29.57
2019-02-20T10:52:40.317Z,28.13
2019-02-20T10:55:09.679Z,27.33
2019-02-20T10:57:38.146Z,27.13
2019-02-20T11:00:11.644Z,29.30
2019-02-20T11:02:39.959Z,28.50
2019-02-20T11:05:08.356Z,26.50
2019-02-20T11:07:36.817Z,33.40
2019-02-20T11:10:07.309Z,26.37
2019-02-20T11:12:35.691Z,29.90
2019-02-20T11:15:05.268Z,25.20
2019-02-20T11:17:33.651Z,23.60
2019-02-20T11:20:02.078Z,26.40
2019-02-20T11:22:32.072Z,24.47
2019-02-20T11:25:00.550Z,22.33
2019-02-20T11:27:28.952Z,23.67
2019-02-20T11:29:57.342Z,25.53
2019-02-20T11:32:25.737Z,20.07
2019-02-20T11:34:54.411Z,10.27
2019-02-20T11:37:23.034Z,8.50
2019-02-20T11:39:51.339Z,7.40
2019-02-20T11:42:19.661Z,10.60
2019-02-20T11:44:47.972Z,12.57
2019-02-20T11:47:16.318Z,9.80
2019-02-20T11:49:46.462Z,8.63
2019-02-20T11:52:14.801Z,12.50
2019-02-20T11:54:44.756Z,12.00
2019-02-20T11:57:13.994Z,15.07
2019-02-20T11:59:42.351Z,17.10
2019-02-20T12:02:12.796Z,15.27
2019-02-20T12:04:42.889Z,16.17
2019-02-20T12:07:11.626Z,13.97
2019-02-20T12:09:40.161Z,11.90
2019-02-20T12:12:09.493Z,18.10
2019-02-20T12:14:37.822Z,24.77
2019-02-20T12:17:06.284Z,23.57
2019-02-20T12:19:34.779Z,17.67
2019-02-20T12:22:03.304Z,16.67
2019-02-20T12:24:32.903Z,21.80
2019-02-20T12:27:01.440Z,16.87
2019-02-20T12:29:30.173Z,18.30
2019-02-20T12:31:58.606Z,19.67
2019-02-20T12:34:26.979Z,14.47
2019-02-20T12:36:56.923Z,16.27
2019-02-20T12:39:25.368Z,17.73
2019-02-20T12:41:53.885Z,12.57
2019-02-20T12:44:26.029Z,14.30
2019-02-20T12:46:56.164Z,16.57
2019-02-20T12:49:24.548Z,14.33
2019-02-20T12:51:53.806Z,16.43
2019-02-20T12:54:26.021Z,16.47
2019-02-20T12:56:55.338Z,17.27
2019-02-20T12:59:28.132Z,20.33
2019-02-20T13:01:57.353Z,15.60
2019-02-20T13:04:26.850Z,16.97
2019-02-20T13:06:59.573Z,15.60
2019-02-20T13:09:28.027Z,16.03
2019-02-20T13:11:56.854Z,16.90
2019-02-20T13:14:35.489Z,13.63
2019-02-20T13:17:04.354Z,18.53
2019-02-20T13:19:47.261Z,16.07
2019-02-20T13:22:19.119Z,15.23
2019-02-20T13:24:48.413Z,15.97
2019-02-20T13:27:22.659Z,13.87
2019-02-20T13:29:54.055Z,14.23
2019-02-20T13:32:23.544Z,12.03
2019-02-20T13:34:54.457Z,13.33
2019-02-20T13:37:27.950Z,17.20
2019-02-20T13:40:03.899Z,13.67
2019-02-20T13:42:36.719Z,14.33
2019-02-20T13:45:07.514Z,12.43
2019-02-20T13:47:36.688Z,12.63
2019-02-20T13:50:11.729Z,16.53
2019-02-20T13:52:51.612Z,12.17
2019-02-20T13:55:11.327Z,13.80
2019-02-20T13:57:40.360Z,12.50
2019-02-20T14:00:13.321Z,11.77
2019-02-20T14:02:46.801Z,12.33
2019-02-20T14:05:15.541Z,11.40
2019-02-20T14:07:49.043Z,12.10
2019-02-20T14:10:19.591Z,12.60
2019-02-20T14:12:48.872Z,13.00
2019-02-20T14:15:18.037Z,15.37
2019-02-20T14:17:47.048Z,16.10
2019-02-20T14:20:16.115Z,12.37
2019-02-20T14:22:45.848Z,13.10
2019-02-20T14:25:14.357Z,14.27
2019-02-20T14:27:45.110Z,15.50
2019-02-20T14:30:13.508Z,15.23
2019-02-20T14:32:41.846Z,12.07
2019-02-20T14:35:12.240Z,12.90
2019-02-20T14:37:40.833Z,12.40
2019-02-20T14:40:09.459Z,13.30
2019-02-20T14:42:37.894Z,13.77
2019-02-20T14:45:09.549Z,17.63
2019-02-20T14:47:38.502Z,12.60
2019-02-20T14:50:09.675Z,15.97
2019-02-20T14:52:38.348Z,18.90
2019-02-20T14:55:08.540Z,15.13
2019-02-20T14:57:36.881Z,15.23
2019-02-20T15:00:12.283Z,14.37
2019-02-20T15:02:43.691Z,14.43
2019-02-20T15:05:12.228Z,16.00
2019-02-20T15:07:40.786Z,17.13
2019-02-20T15:10:10.207Z,15.83
2019-02-20T15:12:38.606Z,13.73
2019-02-20T15:15:10.844Z,12.60
2019-02-20T15:17:39.598Z,11.70
2019-02-20T15:20:11.135Z,18.50
2019-02-20T15:22:39.625Z,36.00
2019-02-20T15:25:09.338Z,15.43
2019-02-20T15:27:37.705Z,21.60
2019-02-20T15:30:14.429Z,20.10
2019-02-20T15:32:42.809Z,37.07
2019-02-20T15:35:11.303Z,18.67
2019-02-20T15:37:39.607Z,21.20
2019-02-20T15:40:10.893Z,14.47
2019-02-20T15:42:39.518Z,17.83
2019-02-20T15:45:11.138Z,13.33
2019-02-20T15:47:39.662Z,18.63
2019-02-20T15:50:15.347Z,18.10
2019-02-20T15:52:44.053Z,21.60
2019-02-20T15:55:12.938Z,18.57
2019-02-20T15:57:41.419Z,20.43
2019-02-20T16:00:16.221Z,17.90
2019-02-20T16:02:44.807Z,21.00
2019-02-20T16:05:13.718Z,15.60
2019-02-20T16:07:42.148Z,18.60
2019-02-20T16:10:11.164Z,16.30
2019-02-20T16:12:39.706Z,18.90
2019-02-20T16:15:11.990Z,16.33
2019-02-20T16:17:41.329Z,16.60
2019-02-20T16:20:11.852Z,16.80
2019-02-20T16:22:40.391Z,14.40
2019-02-20T16:25:12.094Z,16.00
2019-02-20T16:27:46.722Z,17.93
2019-02-20T16:30:14.702Z,14.37
2019-02-20T16:32:43.189Z,17.93
2019-02-20T16:35:12.543Z,18.73
2019-02-20T16:37:41.370Z,19.40
2019-02-20T16:40:12.852Z,17.30
2019-02-20T16:42:41.354Z,23.20
2019-02-20T16:45:24.776Z,21.63
2019-02-20T16:47:53.711Z,19.17
2019-02-20T16:50:22.283Z,24.93
2019-02-20T16:52:50.910Z,20.60
2019-02-20T16:55:19.686Z,19.00
2019-02-20T16:57:56.351Z,23.67
2019-02-20T17:00:21.118Z,35.63
2019-02-20T17:02:49.938Z,20.50
2019-02-20T17:05:18.571Z,30.20
2019-02-20T17:07:46.995Z,25.70
2019-02-20T17:10:17.538Z,25.50
2019-02-20T17:12:46.011Z,26.20
2019-02-20T17:15:16.333Z,29.37
2019-02-20T17:17:44.751Z,32.67
2019-02-20T17:20:18.073Z,22.93
2019-02-20T17:22:46.734Z,23.00
2019-02-20T17:25:15.446Z,30.57
2019-02-20T17:27:43.790Z,26.53
2019-02-20T17:30:18.986Z,22.27
2019-02-20T17:32:47.820Z,33.60
2019-02-20T17:35:17.287Z,28.00
2019-02-20T17:37:45.875Z,36.63
2019-02-20T17:40:14.711Z,31.90
2019-02-20T17:42:43.025Z,28.57
2019-02-20T17:45:19.275Z,27.87
2019-02-20T17:47:48.151Z,42.20
2019-02-20T17:50:21.586Z,31.73
2019-02-20T17:52:49.979Z,31.43
2019-02-20T17:55:18.363Z,33.87
2019-02-20T17:57:46.848Z,43.83
2019-02-20T18:00:19.216Z,31.90
2019-02-20T18:02:47.492Z,41.60
2019-02-20T18:05:15.895Z,33.93
2019-02-20T18:07:49.696Z,48.90
2019-02-20T18:10:14.646Z,39.97
2019-02-20T18:12:45.578Z,34.90
2019-02-20T18:15:18.201Z,28.20
2019-02-20T18:17:46.789Z,38.13
2019-02-20T18:20:15.418Z,46.07
2019-02-20T18:22:43.897Z,56.20
2019-02-20T18:25:12.829Z,64.13
2019-02-20T18:27:41.213Z,60.30
2019-02-20T18:30:12.308Z,60.27
2019-02-20T18:32:40.647Z,46.63
2019-02-20T18:35:14.120Z,43.80
2019-02-20T18:37:42.552Z,41.83
2019-02-20T18:40:14.167Z,36.77
2019-02-20T18:42:42.609Z,34.60
2019-02-20T18:45:12.765Z,42.17
2019-02-20T18:47:42.758Z,38.80
2019-02-20T18:50:12.988Z,42.80
2019-02-20T18:52:41.527Z,57.83
2019-02-20T18:55:13.786Z,58.23
2019-02-20T18:57:42.244Z,42.73
2019-02-20T19:00:20.809Z,43.23
2019-02-20T19:02:49.282Z,44.77
2019-02-20T19:05:19.071Z,45.20
2019-02-20T19:07:48.003Z,44.23
2019-02-20T19:10:22.834Z,39.27
2019-02-20T19:12:57.030Z,35.93
2019-02-20T19:15:34.549Z,41.70
2019-02-20T19:18:12.340Z,46.23
2019-02-20T19:20:52.704Z,37.50
2019-02-20T19:23:27.302Z,41.90
2019-02-20T19:26:14.164Z,44.77
2019-02-20T19:28:54.451Z,47.43
2019-02-20T19:31:48.739Z,39.37
2019-02-20T19:34:25.943Z,46.37
2019-02-20T19:37:15.641Z,37.03
2019-02-20T19:40:20.762Z,40.23
2019-02-20T19:43:27.079Z,41.97
2019-02-20T19:50:17.995Z,42.40
2019-02-20T19:56:29.834Z,40.10
2019-02-20T19:59:18.295Z,45.23
2019-02-20T20:02:28.164Z,47.70
2019-02-20T20:05:22.536Z,37.30
2019-02-20T20:08:16.810Z,34.43
2019-02-20T20:18:19.111Z,44.07
2019-02-20T20:21:22.533Z,38.73
2019-02-20T20:27:58.062Z,51.90
2019-02-20T20:30:35.694Z,90.20
2019-02-20T20:33:30.258Z,67.43
2019-02-20T20:36:13.801Z,50.92
2019-02-20T20:39:07.965Z,37.73
2019-02-20T20:41:42.074Z,51.07
2019-02-20T20:44:31.477Z,38.13
2019-02-20T20:47:17.840Z,34.57
2019-02-20T20:49:58.141Z,37.33
